createdAt,value
2018-01-04T00:00:42.201Z,94444.69
2018-01-04T00:03:12.273Z,94459.59
2018-01-04T00:05:41.321Z,94460.56
2018-01-04T00:10:45.635Z,94454.80
2018-01-04T00:13:14.785Z,94452.77
2018-01-04T00:15:43.892Z,94448.38
2018-01-04T00:18:12.917Z,94449.64
2018-01-04T00:20:41.959Z,94452.63
2018-01-04T00:25:46.264Z,94456.57
2018-01-04T00:28:16.494Z,94459.64
2018-01-04T00:30:49.695Z,94463.48
2018-01-04T00:33:32.547Z,94458.73
2018-01-04T00:36:08.903Z,94469.97
2018-01-04T00:38:45.694Z,94476.05
2018-01-04T00:41:25.031Z,94474.16
2018-01-04T00:46:29.817Z,94479.55
2018-01-04T00:49:08.802Z,94486.66
2018-01-04T00:51:37.836Z,94484.77
2018-01-04T00:54:10.840Z,94503.59
2018-01-04T00:56:39.870Z,94484.83
2018-01-04T01:01:44.106Z,94483.58
2018-01-04T01:07:02.492Z,94475.77
2018-01-04T01:09:35.656Z,94503.00
2018-01-04T01:12:13.956Z,94491.27
2018-01-04T01:14:43.916Z,94480.75
2018-01-04T01:19:51.253Z,94484.13
2018-01-04T01:22:28.443Z,94489.78
2018-01-04T01:25:03.178Z,94509.45
2018-01-04T01:27:34.810Z,94494.59
2018-01-04T01:30:04.914Z,94498.55
2018-01-04T01:32:34.172Z,94505.13
2018-01-04T01:35:04.174Z,94504.73
2018-01-04T01:37:33.213Z,94495.59
2018-01-04T01:40:06.587Z,94502.03
2018-01-04T01:42:35.609Z,94497.91
2018-01-04T01:45:14.163Z,94497.06
2018-01-04T01:47:43.195Z,94498.09
2018-01-04T01:50:17.987Z,94495.56
2018-01-04T01:52:47.021Z,94477.81
2018-01-04T01:55:16.043Z,94491.20
2018-01-04T01:57:45.085Z,94484.36
2018-01-04T02:00:16.015Z,94499.14
2018-01-04T02:02:45.050Z,94493.47
2018-01-04T02:05:16.089Z,94488.88
2018-01-04T02:07:45.130Z,94483.34
2018-01-04T02:10:16.125Z,94481.69
2018-01-04T02:12:45.353Z,94491.43
2018-01-04T02:15:14.365Z,94491.08
2018-01-04T02:17:43.404Z,94486.88
2018-01-04T02:23:08.661Z,94484.75
2018-01-04T02:25:49.334Z,94483.13
2018-01-04T02:28:40.489Z,94474.21
2018-01-04T02:31:27.429Z,94472.41
2018-01-04T02:34:14.368Z,94470.05
2018-01-04T02:43:39.036Z,94444.91
2018-01-04T02:48:43.277Z,94445.31
2018-01-04T02:51:16.261Z,94433.17
2018-01-04T02:53:45.305Z,94437.95
2018-01-04T02:56:14.336Z,94422.02
2018-01-04T02:58:43.389Z,94431.91
2018-01-04T03:01:12.430Z,94424.80
2018-01-04T03:03:41.463Z,94433.97
2018-01-04T03:06:19.169Z,94434.30
2018-01-04T03:08:54.104Z,94435.95
2018-01-04T03:13:58.323Z,94425.84
2018-01-04T03:16:36.149Z,94431.19
2018-01-04T03:19:05.185Z,94434.70
2018-01-04T03:21:55.615Z,94423.95
2018-01-04T03:24:39.669Z,94419.14
2018-01-04T03:27:15.400Z,94456.58
2018-01-04T03:29:44.369Z,94444.23
2018-01-04T03:32:19.061Z,94442.99
2018-01-04T03:42:55.047Z,94435.16
2018-01-04T03:48:10.174Z,94448.26
2018-01-04T03:50:44.605Z,94451.91
2018-01-04T03:53:20.016Z,94446.34
2018-01-04T03:55:59.383Z,94443.66
2018-01-04T03:58:45.208Z,94450.53
2018-01-04T04:01:19.834Z,94447.95
2018-01-04T04:03:50.770Z,94439.41
2018-01-04T04:06:26.266Z,94450.03
2018-01-04T04:08:55.305Z,94442.19
2018-01-04T04:11:24.365Z,94436.71
2018-01-04T04:13:53.386Z,94443.76
2018-01-04T04:16:36.618Z,94429.27
2018-01-04T04:19:10.665Z,94441.32
2018-01-04T04:24:14.972Z,94423.91
2018-01-04T04:26:54.872Z,94425.16
2018-01-04T04:29:23.897Z,94402.96
2018-01-04T04:31:52.933Z,94402.09
2018-01-04T04:34:21.945Z,94395.09
2018-01-04T04:39:26.253Z,94391.47
2018-01-04T04:44:30.494Z,94381.34
2018-01-04T04:46:59.565Z,94404.69
2018-01-04T04:49:28.586Z,94401.23
2018-01-04T04:52:00.804Z,94405.31
2018-01-04T04:54:29.865Z,94398.80
2018-01-04T04:57:13.471Z,94384.95
2018-01-04T04:59:42.538Z,94409.98
2018-01-04T05:02:13.034Z,94401.04
2018-01-04T05:07:18.289Z,94402.91
2018-01-04T05:09:49.217Z,94396.29
2018-01-04T05:12:18.258Z,94413.38
2018-01-04T05:14:47.352Z,94424.17
2018-01-04T05:17:16.358Z,94429.44
2018-01-04T05:19:46.403Z,94414.36
2018-01-04T05:22:15.433Z,94434.70
2018-01-04T05:24:48.950Z,94432.98
2018-01-04T05:27:17.997Z,94436.19
2018-01-04T05:29:47.022Z,94442.09
2018-01-04T05:32:16.057Z,94437.24
2018-01-04T05:34:46.083Z,94424.89
2018-01-04T05:37:15.114Z,94426.72
2018-01-04T05:39:52.085Z,94430.20
2018-01-04T05:42:22.048Z,94417.13
2018-01-04T05:44:54.783Z,94414.67
2018-01-04T05:47:24.457Z,94408.19
2018-01-04T05:49:53.490Z,94415.28
2018-01-04T05:52:23.417Z,94407.85
2018-01-04T05:54:56.328Z,94405.73
2018-01-04T05:57:25.329Z,94415.63
2018-01-04T05:59:54.372Z,94408.84
2018-01-04T06:02:23.412Z,94399.13
2018-01-04T06:04:52.442Z,94402.92
2018-01-04T06:09:56.684Z,94409.94
2018-01-04T06:12:25.781Z,94419.17
2018-01-04T06:14:54.811Z,94413.52
2018-01-04T06:17:23.838Z,94408.77
2018-01-04T06:19:52.869Z,94414.83
2018-01-04T06:24:57.152Z,94402.30
2018-01-04T06:30:10.503Z,94397.38
2018-01-04T06:32:39.572Z,94376.72
2018-01-04T06:35:08.798Z,94379.17
2018-01-04T06:37:38.711Z,94375.25
2018-01-04T06:42:43.011Z,94375.75
2018-01-04T06:47:47.289Z,94385.24
2018-01-04T06:50:16.362Z,94382.08
2018-01-04T06:52:45.391Z,94379.70
2018-01-04T06:55:14.429Z,94377.95
2018-01-04T06:57:43.473Z,94386.00
2018-01-04T07:00:12.573Z,94388.63
2018-01-04T07:02:41.555Z,94383.42
2018-01-04T07:05:12.577Z,94378.42
2018-01-04T07:07:41.558Z,94376.46
2018-01-04T07:10:12.563Z,94383.16
2018-01-04T07:12:41.590Z,94396.92
2018-01-04T07:15:12.626Z,94389.93
2018-01-04T07:17:41.684Z,94386.42
2018-01-04T07:20:10.739Z,94375.84
2018-01-04T07:22:39.765Z,94365.69
2018-01-04T07:25:08.809Z,94364.20
2018-01-04T07:27:37.856Z,94365.36
2018-01-04T07:30:06.886Z,94363.72
2018-01-04T07:32:36.933Z,94357.98
2018-01-04T07:35:06.033Z,94369.06
2018-01-04T07:37:35.054Z,94375.84
2018-01-04T07:40:04.103Z,94380.66
2018-01-04T07:42:33.125Z,94379.59
2018-01-04T07:45:02.161Z,94386.59
2018-01-04T07:47:31.225Z,94384.23
2018-01-04T07:50:00.282Z,94379.72
2018-01-04T07:52:29.331Z,94360.68
2018-01-04T07:54:58.370Z,94352.96
2018-01-04T07:57:28.333Z,94349.86
2018-01-04T07:59:58.512Z,94352.34
2018-01-04T08:02:27.643Z,94357.09
2018-01-04T08:04:56.661Z,94354.52
2018-01-04T08:07:28.349Z,94349.28
2018-01-04T08:09:58.362Z,94352.38
2018-01-04T08:12:29.134Z,94340.09
2018-01-04T08:14:58.181Z,94347.70
2018-01-04T08:17:31.784Z,94348.45
2018-01-04T08:20:00.933Z,94343.73
2018-01-04T08:22:33.572Z,94344.58
2018-01-04T08:25:02.618Z,94338.00
2018-01-04T08:27:31.665Z,94348.20
2018-01-04T08:30:01.676Z,94347.64
2018-01-04T08:32:30.753Z,94354.67
2018-01-04T08:34:59.790Z,94351.16
2018-01-04T08:37:28.824Z,94345.63
2018-01-04T08:40:01.269Z,94345.41
2018-01-04T08:42:30.296Z,94353.83
2018-01-04T08:45:00.207Z,94344.56
2018-01-04T08:47:29.247Z,94347.20
2018-01-04T08:49:58.287Z,94342.44
2018-01-04T08:52:27.326Z,94333.59
2018-01-04T08:54:56.434Z,94322.86
2018-01-04T08:57:25.434Z,94321.33
2018-01-04T08:59:54.465Z,94334.69
2018-01-04T09:02:29.198Z,94321.09
2018-01-04T09:07:33.516Z,94332.05
2018-01-04T09:10:02.543Z,94337.61
2018-01-04T09:12:31.612Z,94328.34
2018-01-04T09:15:00.629Z,94322.72
2018-01-04T09:17:29.673Z,94307.02
2018-01-04T09:19:58.708Z,94310.11
2018-01-04T09:22:27.740Z,94319.07
2018-01-04T09:24:56.804Z,94317.07
2018-01-04T09:27:25.857Z,94318.20
2018-01-04T09:32:31.169Z,94326.39
2018-01-04T09:35:00.188Z,94324.39
2018-01-04T09:37:29.233Z,94318.07
2018-01-04T09:39:58.274Z,94318.23
2018-01-04T09:42:29.752Z,94325.52
2018-01-04T09:45:05.952Z,94323.10
2018-01-04T09:47:39.044Z,94317.06
2018-01-04T09:50:10.989Z,94317.30
2018-01-04T09:52:44.262Z,94312.28
2018-01-04T09:55:20.900Z,94318.11
2018-01-04T09:57:54.193Z,94316.42
2018-01-04T10:00:23.204Z,94316.81
2018-01-04T10:02:53.366Z,94314.67
2018-01-04T10:05:23.326Z,94310.31
2018-01-04T10:07:53.958Z,94308.57
2018-01-04T10:10:23.897Z,94313.81
2018-01-04T10:12:52.955Z,94305.48
2018-01-04T10:15:26.710Z,94304.09
2018-01-04T10:31:15.670Z,94270.75
2018-01-04T10:33:44.689Z,94272.14
2018-01-04T10:36:13.737Z,94258.06
2018-01-04T10:38:42.777Z,94252.33
2018-01-04T10:43:47.492Z,94244.63
2018-01-04T10:46:19.742Z,94245.25
2018-01-04T10:48:48.790Z,94241.95
2018-01-04T10:51:22.418Z,94236.84
2018-01-04T10:53:53.398Z,94226.91
2018-01-04T10:56:22.433Z,94224.22
2018-01-04T10:59:18.204Z,94217.36
2018-01-04T11:04:29.260Z,94203.98
2018-01-04T11:07:09.603Z,94199.93
2018-01-04T11:09:44.237Z,94198.34
2018-01-04T11:12:14.951Z,94188.02
2018-01-04T11:14:52.778Z,94175.06
2018-01-04T11:17:22.174Z,94169.57
2018-01-04T11:19:52.066Z,94161.84
2018-01-04T11:22:25.256Z,94156.42
2018-01-04T11:24:58.003Z,94154.13
2018-01-04T11:27:27.061Z,94148.67
2018-01-04T11:30:02.477Z,94146.16
2018-01-04T11:32:31.482Z,94140.66
2018-01-04T11:35:01.276Z,94139.78
2018-01-04T11:37:33.643Z,94135.41
2018-01-04T11:40:03.678Z,94129.23
2018-01-04T11:42:32.721Z,94116.98
2018-01-04T11:45:07.384Z,94116.25
2018-01-04T11:47:36.391Z,94110.81
2018-01-04T11:50:06.406Z,94112.91
2018-01-04T11:52:37.156Z,94104.91
2018-01-04T11:55:08.289Z,94099.96
2018-01-04T11:57:37.314Z,94095.65
2018-01-04T12:00:10.063Z,94091.36
2018-01-04T12:02:40.276Z,94083.34
2018-01-04T12:05:09.310Z,94077.05
2018-01-04T12:07:39.716Z,94075.98
2018-01-04T12:12:45.091Z,94058.40
2018-01-04T12:15:14.119Z,94064.75
2018-01-04T12:17:44.307Z,94059.23
2018-01-04T12:20:13.346Z,94063.80
2018-01-04T12:22:47.620Z,94051.14
2018-01-04T12:25:18.674Z,94047.61
2018-01-04T12:27:47.682Z,94046.19
2018-01-04T12:30:16.714Z,94041.89
2018-01-04T12:32:46.609Z,94037.91
2018-01-04T12:35:16.766Z,94031.66
2018-01-04T12:37:45.798Z,94024.79
2018-01-04T12:40:17.740Z,94015.41
2018-01-04T12:42:46.736Z,94013.30
2018-01-04T12:45:15.776Z,94005.69
2018-01-04T12:47:46.731Z,94005.96
2018-01-04T12:50:17.021Z,94008.00
2018-01-04T12:52:46.046Z,93991.38
2018-01-04T12:57:50.810Z,93981.20
2018-01-04T13:02:56.464Z,93975.02
2018-01-04T13:05:26.224Z,93970.31
2018-01-04T13:07:55.266Z,93963.94
2018-01-04T13:10:27.337Z,93958.99
2018-01-04T13:12:59.690Z,93954.02
2018-01-04T13:15:28.703Z,93948.67
2018-01-04T13:17:57.733Z,93948.22
2018-01-04T13:20:29.693Z,93945.62
2018-01-04T13:22:58.750Z,93943.11
2018-01-04T13:25:27.774Z,93946.52
2018-01-04T13:28:02.044Z,93937.38
2018-01-04T13:30:33.022Z,93933.41
2018-01-04T13:33:02.066Z,93932.19
2018-01-04T13:35:36.138Z,93927.09
2018-01-04T13:38:05.162Z,93919.82
2018-01-04T13:40:35.155Z,93930.89
2018-01-04T13:43:05.711Z,93924.57
2018-01-04T13:45:34.730Z,93921.68
2018-01-04T13:48:03.768Z,93917.62
2018-01-04T13:50:36.641Z,93913.59
2018-01-04T13:53:06.604Z,93911.99
2018-01-04T13:55:37.797Z,93911.64
2018-01-04T13:58:07.823Z,93901.10
2018-01-04T14:00:37.794Z,93898.42
2018-01-04T14:03:06.824Z,93897.53
2018-01-04T14:08:11.231Z,93907.91
2018-01-04T14:10:40.269Z,93904.57
2018-01-04T14:13:09.460Z,93896.95
2018-01-04T14:18:13.680Z,93880.20
2018-01-04T14:20:46.373Z,93877.83
2018-01-04T14:23:15.442Z,93877.96
2018-01-04T14:25:46.478Z,93877.56
2018-01-04T14:28:15.530Z,93883.16
2018-01-04T14:33:19.737Z,93873.22
2018-01-04T14:35:52.605Z,93878.23
2018-01-04T14:38:21.669Z,93882.67
2018-01-04T14:40:53.577Z,93883.79
2018-01-04T14:43:22.613Z,93876.17
2018-01-04T14:45:51.662Z,93874.09
2018-01-04T14:48:21.646Z,93876.84
2018-01-04T14:50:56.562Z,93883.89
2018-01-04T14:53:25.592Z,93877.53
2018-01-04T14:58:31.014Z,93858.55
2018-01-04T15:03:37.345Z,93852.86
2018-01-04T15:06:07.277Z,93853.78
2018-01-04T15:08:36.306Z,93855.34
2018-01-04T15:11:07.868Z,93856.66
2018-01-04T15:13:36.910Z,93850.52
2018-01-04T15:16:05.925Z,93845.55
2018-01-04T15:18:36.581Z,93841.83
2018-01-04T15:21:05.611Z,93835.37
2018-01-04T15:23:35.542Z,93836.97
2018-01-04T15:28:48.753Z,93832.66
2018-01-04T15:31:17.780Z,93835.02
2018-01-04T15:33:46.832Z,93828.08
2018-01-04T15:36:16.844Z,93824.77
2018-01-04T15:38:45.893Z,93821.55
2018-01-04T15:41:14.985Z,93817.05
2018-01-04T15:43:44.021Z,93814.94
2018-01-04T15:48:48.305Z,93795.19
2018-01-04T15:51:18.314Z,93800.66
2018-01-04T15:53:47.349Z,93807.36
2018-01-04T15:56:17.310Z,93798.39
2018-01-04T15:58:46.345Z,93813.30
2018-01-04T16:03:50.569Z,93805.89
2018-01-04T16:06:20.576Z,93820.05
2018-01-04T16:08:49.613Z,93803.85
2018-01-04T16:11:18.664Z,93810.91
2018-01-04T16:13:47.695Z,93815.86
2018-01-04T16:18:54.968Z,93809.00
2018-01-04T16:21:24.019Z,93814.44
2018-01-04T16:23:53.062Z,93822.57
2018-01-04T16:26:22.109Z,93800.42
2018-01-04T16:28:51.157Z,93835.37
2018-01-04T16:31:20.189Z,93822.38
2018-01-04T16:33:49.229Z,93830.39
2018-01-04T16:36:18.274Z,93830.30
2018-01-04T16:38:47.319Z,93814.21
2018-01-04T16:41:18.261Z,93826.08
2018-01-04T16:43:47.295Z,93829.88
2018-01-04T16:46:16.321Z,93816.62
2018-01-04T16:48:45.371Z,93857.48
2018-01-04T16:53:49.661Z,93840.86
2018-01-04T16:56:18.749Z,93833.84
2018-01-04T16:58:51.052Z,93846.59
2018-01-04T17:01:20.094Z,93846.31
2018-01-04T17:03:49.129Z,93833.47
2018-01-04T17:06:18.168Z,93853.98
2018-01-04T17:08:50.360Z,93853.53
2018-01-04T17:11:23.418Z,93839.24
2018-01-04T17:13:52.454Z,93848.41
2018-01-04T17:16:21.490Z,93873.59
2018-01-04T17:21:25.827Z,93847.72
2018-01-04T17:23:55.737Z,93826.61
2018-01-04T17:26:25.753Z,93824.16
2018-01-04T17:28:57.925Z,93839.63
2018-01-04T17:31:28.413Z,93840.55
2018-01-04T17:33:58.004Z,93837.38
2018-01-04T17:36:45.019Z,93829.73
2018-01-04T17:39:19.366Z,93829.98
2018-01-04T17:41:48.451Z,93838.34
2018-01-04T17:44:21.624Z,93848.84
2018-01-04T17:47:10.830Z,93841.19
2018-01-04T17:49:39.952Z,93815.62
2018-01-04T17:52:08.975Z,93853.26
2018-01-04T17:54:39.032Z,93833.34
2018-01-04T17:57:09.994Z,93841.98
2018-01-04T17:59:41.503Z,93842.31
2018-01-04T18:02:11.418Z,93841.72
2018-01-04T18:07:15.633Z,93838.48
2018-01-04T18:12:20.370Z,93848.78
2018-01-04T18:15:03.589Z,93852.58
2018-01-04T18:17:33.588Z,93852.75
2018-01-04T18:20:07.404Z,93835.45
2018-01-04T18:22:36.457Z,93848.53
2018-01-04T18:25:09.055Z,93844.80
2018-01-04T18:27:38.824Z,93847.46
2018-01-04T18:30:12.396Z,93842.67
2018-01-04T18:35:17.275Z,93837.16
2018-01-04T18:37:56.886Z,93840.94
2018-01-04T18:40:28.278Z,93848.07
2018-01-04T18:43:00.635Z,93846.59
2018-01-04T18:45:44.044Z,93838.12
2018-01-04T18:48:13.251Z,93847.39
2018-01-04T18:50:51.705Z,93850.56
2018-01-04T18:53:21.983Z,93841.10
2018-01-04T18:55:51.213Z,93840.64
2018-01-04T18:58:22.998Z,93838.21
2018-01-04T19:00:55.052Z,93838.71
2018-01-04T19:03:24.259Z,93842.70
2018-01-04T19:05:57.008Z,93838.55
2018-01-04T19:08:27.592Z,93856.17
2018-01-04T19:11:14.289Z,93835.73
2018-01-04T19:13:43.537Z,93847.63
2018-01-04T19:16:14.419Z,93837.60
2018-01-04T19:18:43.641Z,93845.23
2018-01-04T19:21:12.665Z,93852.69
2018-01-04T19:23:43.111Z,93834.02
2018-01-04T19:26:12.184Z,93844.46
2018-01-04T19:28:41.336Z,93840.17
2018-01-04T19:31:12.531Z,93847.45
2018-01-04T19:33:42.886Z,93839.00
2018-01-04T19:36:23.141Z,93842.63
2018-01-04T19:38:56.230Z,93827.33
2018-01-04T19:41:27.533Z,93825.64
2018-01-04T19:44:09.569Z,93825.78
2018-01-04T19:46:38.597Z,93820.86
2018-01-04T19:49:21.690Z,93812.94
2018-01-04T19:51:50.718Z,93835.84
2018-01-04T19:57:02.674Z,93806.47
2018-01-04T19:59:31.726Z,93809.09
2018-01-04T20:04:48.476Z,93827.39
2018-01-04T20:07:24.221Z,93811.20
2018-01-04T20:09:53.387Z,93809.85
2018-01-04T20:12:23.383Z,93812.16
2018-01-04T20:14:58.371Z,93814.27
2018-01-04T20:17:32.587Z,93819.34
2018-01-04T20:22:37.039Z,93819.68
2018-01-04T20:25:13.052Z,93819.33
2018-01-04T20:27:42.201Z,93840.69
2018-01-04T20:30:11.246Z,93799.67
2018-01-04T20:32:42.506Z,93830.93
2018-01-04T20:35:12.813Z,93815.28
2018-01-04T20:37:42.208Z,93879.70
2018-01-04T20:40:12.803Z,93830.28
2018-01-04T20:42:53.189Z,93831.98
2018-01-04T20:45:30.111Z,93827.08
2018-01-04T20:48:00.476Z,93812.87
2018-01-04T20:50:40.274Z,93842.81
2018-01-04T20:53:09.397Z,93817.08
2018-01-04T20:55:39.351Z,93854.54
2018-01-04T20:58:09.578Z,93860.59
2018-01-04T21:00:42.360Z,93849.34
2018-01-04T21:03:11.386Z,93847.54
2018-01-04T21:05:41.542Z,93840.71
2018-01-04T21:08:10.619Z,93842.44
2018-01-04T21:10:43.725Z,93860.28
2018-01-04T21:13:17.664Z,93857.13
2018-01-04T21:15:46.983Z,93838.28
2018-01-04T21:18:19.422Z,93849.77
2018-01-04T21:20:51.970Z,93863.06
2018-01-04T21:25:56.266Z,93844.78
2018-01-04T21:28:27.158Z,93841.17
2018-01-04T21:30:57.133Z,93887.87
2018-01-04T21:33:26.179Z,93870.64
2018-01-04T21:35:56.093Z,93863.42
2018-01-04T21:38:25.425Z,93854.61
2018-01-04T21:40:56.547Z,93881.81
2018-01-04T21:43:27.629Z,93832.95
2018-01-04T21:48:34.731Z,93844.80
2018-01-04T21:51:15.606Z,93855.14
2018-01-04T21:53:52.569Z,93846.54
2018-01-04T21:56:26.472Z,93841.91
2018-01-04T22:01:33.597Z,93828.45
2018-01-04T22:04:02.649Z,93846.81
2018-01-04T22:06:31.762Z,93797.31
2018-01-04T22:09:01.724Z,93829.84
2018-01-04T22:11:30.945Z,93831.34
2018-01-04T22:14:02.012Z,93822.80
2018-01-04T22:16:31.058Z,93813.02
2018-01-04T22:19:02.071Z,93860.51
2018-01-04T22:21:31.140Z,93840.79
2018-01-04T22:24:00.193Z,93861.72
2018-01-04T22:26:29.256Z,93859.39
2018-01-04T22:29:03.226Z,93885.58
2018-01-04T22:31:32.267Z,93899.70
2018-01-04T22:34:01.447Z,93863.17
2018-01-04T22:36:30.501Z,93885.34
2018-01-04T22:41:54.418Z,93895.83
2018-01-04T22:44:23.778Z,93918.36
2018-01-04T22:46:52.829Z,93889.02
2018-01-04T22:49:21.877Z,93915.95
2018-01-04T22:51:55.878Z,93905.39
2018-01-04T22:54:24.935Z,93896.14
2018-01-04T22:56:53.994Z,93886.41
2018-01-04T22:59:24.001Z,93909.97
2018-01-04T23:01:53.081Z,93900.77
2018-01-04T23:04:31.982Z,93910.27
2018-01-04T23:07:01.033Z,93929.78
2018-01-04T23:09:37.710Z,93946.20
2018-01-04T23:12:10.517Z,93930.27
2018-01-04T23:14:39.568Z,93912.81
2018-01-04T23:17:16.237Z,93927.55
2018-01-04T23:19:45.285Z,93948.16
2018-01-04T23:22:14.334Z,93932.06
2018-01-04T23:24:43.372Z,93930.50
2018-01-04T23:27:14.397Z,93974.09
2018-01-04T23:29:43.479Z,94027.89
2018-01-04T23:32:12.493Z,94047.77
2018-01-04T23:34:41.535Z,94023.27
2018-01-04T23:37:10.565Z,94028.45
2018-01-04T23:44:51.105Z,94018.26
2018-01-04T23:49:56.320Z,94026.18
2018-01-04T23:52:38.225Z,94022.98
2018-01-04T23:55:07.259Z,94031.09
2018-01-04T23:57:38.196Z,94032.87
